createdAt,value
2022-12-25T00:00:15.138Z,101265.03
2022-12-25T00:02:45.751Z,101264.13
2022-12-25T00:05:13.056Z,101257.13
2022-12-25T00:07:40.242Z,101248.41
2022-12-25T00:10:09.643Z,101244.91
2022-12-25T00:12:36.930Z,101251.75
2022-12-25T00:15:05.082Z,101253.47
2022-12-25T00:17:32.297Z,101255.06
2022-12-25T00:19:59.556Z,101249.84
2022-12-25T00:22:27.008Z,101261.91
2022-12-25T00:24:54.184Z,101253.19
2022-12-25T00:27:21.612Z,101250.59
2022-12-25T00:29:48.940Z,101258.38
2022-12-25T00:32:16.149Z,101257.56
2022-12-25T00:34:43.370Z,101243.59
2022-12-25T00:37:10.693Z,101254.09
2022-12-25T00:39:38.074Z,101252.34
2022-12-25T00:42:20.707Z,101241.09
2022-12-25T00:44:50.509Z,101236.00
2022-12-25T00:47:18.272Z,101238.59
2022-12-25T00:49:45.778Z,101238.66
2022-12-25T00:52:13.117Z,101233.44
2022-12-25T00:54:40.324Z,101238.66
2022-12-25T00:57:07.559Z,101238.59
2022-12-25T00:59:35.733Z,101248.09
2022-12-25T01:02:21.629Z,101235.94
2022-12-25T01:04:51.082Z,101227.38
2022-12-25T01:07:19.857Z,101222.06
2022-12-25T01:10:06.659Z,101228.06
2022-12-25T01:12:39.912Z,101224.59
2022-12-25T01:15:10.946Z,101224.56
2022-12-25T01:17:38.241Z,101231.44
2022-12-25T01:20:06.786Z,101228.81
2022-12-25T01:22:34.095Z,101229.72
2022-12-25T01:25:01.476Z,101227.94
2022-12-25T01:27:28.675Z,101233.16
2022-12-25T01:29:55.901Z,101232.38
2022-12-25T01:32:23.456Z,101240.22
2022-12-25T01:34:56.016Z,101242.75
2022-12-25T01:37:25.723Z,101249.75
2022-12-25T01:39:52.958Z,101247.94
2022-12-25T01:42:24.036Z,101249.59
2022-12-25T01:44:51.064Z,101250.41
2022-12-25T01:47:19.006Z,101253.81
2022-12-25T01:49:50.976Z,101244.28
2022-12-25T01:52:25.159Z,101247.75
2022-12-25T01:55:09.388Z,101243.38
2022-12-25T01:57:40.452Z,101257.22
2022-12-25T02:00:11.930Z,101258.94
2022-12-25T02:02:41.303Z,101262.31
2022-12-25T02:05:28.236Z,101265.84
2022-12-25T02:07:58.276Z,101267.53
2022-12-25T02:10:25.668Z,101268.34
2022-12-25T02:12:53.807Z,101263.97
2022-12-25T02:15:33.608Z,101264.81
2022-12-25T02:18:40.823Z,101262.22
2022-12-25T02:21:52.963Z,101265.63
2022-12-25T02:25:22.419Z,101263.03
2022-12-25T02:28:28.926Z,101277.81
2022-12-25T02:31:16.294Z,101269.13
2022-12-25T02:34:32.648Z,101267.31
2022-12-25T02:37:42.683Z,101276.81
2022-12-25T02:40:19.628Z,101268.91
2022-12-25T02:43:30.395Z,101260.97
2022-12-25T02:46:29.226Z,101262.69
2022-12-25T02:49:34.574Z,101243.47
2022-12-25T02:52:29.829Z,101243.47
2022-12-25T02:55:38.225Z,101239.19
2022-12-25T02:58:33.458Z,101246.09
2022-12-25T03:01:36.734Z,101233.16
2022-12-25T03:04:48.278Z,101227.75
2022-12-25T03:07:22.525Z,101209.78
2022-12-25T03:10:23.663Z,101209.84
2022-12-25T03:13:12.694Z,101203.94
2022-12-25T03:15:58.819Z,101191.00
2022-12-25T03:18:31.287Z,101175.47
2022-12-25T03:21:18.721Z,101163.38
2022-12-25T03:24:14.955Z,101160.78
2022-12-25T03:26:55.896Z,101165.31
2022-12-25T03:29:52.508Z,101158.53
2022-12-25T03:32:35.388Z,101159.50
2022-12-25T03:36:03.217Z,101159.50
2022-12-25T03:39:21.036Z,101146.63
2022-12-25T03:42:19.323Z,101139.81
2022-12-25T03:45:37.595Z,101151.22
2022-12-25T03:48:27.021Z,101153.94
2022-12-25T03:51:28.670Z,101149.69
2022-12-25T03:54:24.254Z,101160.13
2022-12-25T03:57:11.123Z,101164.50
2022-12-25T03:59:56.933Z,101161.00
2022-12-25T04:02:42.929Z,101156.72
2022-12-25T04:05:28.949Z,101154.13
2022-12-25T04:08:14.658Z,101168.06
2022-12-25T04:11:00.680Z,101149.84
2022-12-25T04:13:46.428Z,101152.47
2022-12-25T04:16:32.318Z,101153.28
2022-12-25T04:19:18.123Z,101164.59
2022-12-25T04:22:04.609Z,101167.31
2022-12-25T04:24:50.620Z,101160.44
2022-12-25T04:27:36.511Z,101150.91
2022-12-25T04:30:23.005Z,101155.28
2022-12-25T04:33:09.107Z,101152.72
2022-12-25T04:35:54.886Z,101164.06
2022-12-25T04:38:22.332Z,101155.44
2022-12-25T04:40:49.534Z,101166.78
2022-12-25T04:43:16.775Z,101165.09
2022-12-25T04:45:52.455Z,101168.59
2022-12-25T04:48:19.777Z,101158.22
2022-12-25T04:50:46.992Z,101163.44
2022-12-25T04:53:15.186Z,101156.47
2022-12-25T04:55:42.445Z,101148.75
2022-12-25T04:58:10.196Z,101155.66
2022-12-25T05:00:37.765Z,101148.81
2022-12-25T05:03:05.207Z,101141.03
2022-12-25T05:05:32.509Z,101143.69
2022-12-25T05:07:59.720Z,101147.28
2022-12-25T05:10:26.904Z,101145.56
2022-12-25T05:12:54.066Z,101146.47
2022-12-25T05:15:21.496Z,101146.53
2022-12-25T05:17:50.835Z,101138.75
2022-12-25T05:20:18.099Z,101144.84
2022-12-25T05:22:45.353Z,101133.59
2022-12-25T05:25:12.569Z,101131.84
2022-12-25T05:27:40.038Z,101132.81
2022-12-25T05:30:08.806Z,101138.91
2022-12-25T05:32:36.349Z,101136.31
2022-12-25T05:35:04.169Z,101132.81
2022-12-25T05:37:31.427Z,101131.03
2022-12-25T05:39:59.231Z,101126.59
2022-12-25T05:42:26.503Z,101122.06
2022-12-25T05:44:53.827Z,101115.06
2022-12-25T05:47:21.202Z,101124.59
2022-12-25T05:49:48.444Z,101110.63
2022-12-25T05:52:15.679Z,101108.13
2022-12-25T05:54:42.982Z,101115.06
2022-12-25T05:57:10.162Z,101110.78
2022-12-25T05:59:37.487Z,101116.84
2022-12-25T06:02:04.887Z,101119.44
2022-12-25T06:04:32.177Z,101124.59
2022-12-25T06:06:59.451Z,101108.00
2022-12-25T06:09:26.807Z,101095.81
2022-12-25T06:11:54.048Z,101091.31
2022-12-25T06:14:21.249Z,101080.91
2022-12-25T06:16:53.529Z,101088.66
2022-12-25T06:19:21.889Z,101097.31
2022-12-25T06:21:54.353Z,101091.16
2022-12-25T06:24:23.757Z,101095.41
2022-12-25T06:26:51.076Z,101097.91
2022-12-25T06:29:18.330Z,101088.28
2022-12-25T06:31:45.570Z,101069.97
2022-12-25T06:34:16.408Z,101060.28
2022-12-25T06:36:43.662Z,101071.50
2022-12-25T06:39:10.967Z,101061.78
2022-12-25T06:41:38.174Z,101060.88
2022-12-25T06:44:05.799Z,101062.53
2022-12-25T06:46:33.092Z,101044.22
2022-12-25T06:49:01.271Z,101038.94
2022-12-25T06:51:32.214Z,101024.91
2022-12-25T06:54:03.939Z,101038.69
2022-12-25T06:56:34.057Z,101047.31
2022-12-25T06:59:06.934Z,101035.97
2022-12-25T07:01:53.647Z,101026.31
2022-12-25T07:04:38.116Z,101006.16
2022-12-25T07:07:09.217Z,101008.59
2022-12-25T07:09:39.098Z,101008.59
2022-12-25T07:12:19.649Z,101021.56
2022-12-25T07:14:50.039Z,101013.75
2022-12-25T07:17:18.845Z,101009.44
2022-12-25T07:19:49.877Z,101025.84
2022-12-25T07:22:18.011Z,101037.00
2022-12-25T07:24:45.294Z,101030.88
2022-12-25T07:27:12.554Z,101032.41
2022-12-25T07:29:39.786Z,101057.56
2022-12-25T07:32:07.333Z,101064.50
2022-12-25T07:34:34.574Z,101054.00
2022-12-25T07:37:01.835Z,101053.06
2022-12-25T07:39:29.348Z,101057.38
2022-12-25T07:41:56.603Z,101054.69
2022-12-25T07:44:27.202Z,101060.75
2022-12-25T07:46:54.486Z,101058.09
2022-12-25T07:49:21.924Z,101029.38
2022-12-25T07:51:49.142Z,101009.19
2022-12-25T07:54:16.410Z,101015.28
2022-12-25T07:56:43.719Z,101021.34
2022-12-25T07:59:10.947Z,101036.13
2022-12-25T08:01:38.366Z,101037.94
2022-12-25T08:04:05.815Z,101059.69
2022-12-25T08:06:35.935Z,101075.34
2022-12-25T08:09:13.511Z,101080.50
2022-12-25T08:11:46.882Z,101080.56
2022-12-25T08:14:15.358Z,101085.78
2022-12-25T08:16:42.678Z,101089.16
2022-12-25T08:19:10.556Z,101075.22
2022-12-25T08:21:38.227Z,101086.44
2022-12-25T08:24:05.935Z,101102.97
2022-12-25T08:26:33.252Z,101102.03
2022-12-25T08:29:00.518Z,101091.59
2022-12-25T08:31:30.345Z,101077.63
2022-12-25T08:33:59.711Z,101073.38
2022-12-25T08:36:27.498Z,101062.09
2022-12-25T08:39:02.075Z,101071.69
2022-12-25T08:41:31.615Z,101075.16
2022-12-25T08:43:59.372Z,101071.69
2022-12-25T08:46:26.668Z,101073.38
2022-12-25T08:48:54.305Z,101082.88
2022-12-25T08:51:23.991Z,101083.63
2022-12-25T08:53:53.596Z,101085.34
2022-12-25T08:56:21.176Z,101084.44
2022-12-25T08:58:48.354Z,101078.34
2022-12-25T09:01:15.712Z,101074.06
2022-12-25T09:03:43.739Z,101075.81
2022-12-25T09:06:16.013Z,101061.97
2022-12-25T09:08:48.797Z,101071.59
2022-12-25T09:11:19.764Z,101069.81
2022-12-25T09:13:48.224Z,101054.97
2022-12-25T09:16:21.566Z,101050.75
2022-12-25T09:18:49.699Z,101052.44
2022-12-25T09:21:18.997Z,101071.50
2022-12-25T09:23:46.342Z,101061.91
2022-12-25T09:26:18.048Z,101080.06
2022-12-25T09:28:51.460Z,101091.28
2022-12-25T09:31:22.125Z,101079.16
2022-12-25T09:33:50.998Z,101075.56
2022-12-25T09:36:18.778Z,101073.81
2022-12-25T09:38:46.078Z,101051.16
2022-12-25T09:41:34.643Z,101086.88
2022-12-25T09:44:14.881Z,101090.44
2022-12-25T09:46:53.783Z,101051.53
2022-12-25T09:49:56.880Z,101035.75
2022-12-25T09:52:57.593Z,101050.56
2022-12-25T09:55:30.917Z,101046.38
2022-12-25T09:58:02.499Z,101042.97
2022-12-25T10:00:40.687Z,101037.81
2022-12-25T10:03:24.591Z,101028.28
2022-12-25T10:06:16.761Z,101032.59
2022-12-25T10:08:49.647Z,101030.00
2022-12-25T10:11:31.779Z,101030.91
2022-12-25T10:14:38.681Z,101023.97
2022-12-25T10:17:49.320Z,101027.50
2022-12-25T10:20:39.496Z,100991.88
2022-12-25T10:23:45.072Z,101013.66
2022-12-25T10:26:25.471Z,101000.59
2022-12-25T10:29:14.260Z,100997.09
2022-12-25T10:31:46.945Z,100995.25
2022-12-25T10:34:16.192Z,100992.69
2022-12-25T10:36:46.435Z,100983.19
2022-12-25T10:39:31.837Z,100988.41
2022-12-25T10:42:43.672Z,100990.28
2022-12-25T10:45:11.210Z,100990.22
2022-12-25T10:47:42.664Z,100992.06
2022-12-25T10:50:23.480Z,100993.88
2022-12-25T10:53:22.258Z,101000.72
2022-12-25T10:56:06.469Z,101003.41
2022-12-25T10:58:34.754Z,100979.91
2022-12-25T11:01:08.292Z,100957.34
2022-12-25T11:03:41.508Z,100965.06
2022-12-25T11:06:28.658Z,100946.78
2022-12-25T11:09:02.537Z,100939.84
2022-12-25T11:11:31.276Z,100941.63
2022-12-25T11:14:02.710Z,100957.22
2022-12-25T11:16:39.932Z,100946.09
2022-12-25T11:19:32.752Z,100935.59
2022-12-25T11:22:05.123Z,100939.84
2022-12-25T11:24:35.093Z,100925.97
2022-12-25T11:27:06.619Z,100930.25
2022-12-25T11:29:58.158Z,100927.63
2022-12-25T11:32:30.849Z,100925.91
2022-12-25T11:35:01.858Z,100904.00
2022-12-25T11:37:51.270Z,100899.53
2022-12-25T11:40:46.112Z,100896.84
2022-12-25T11:43:29.326Z,100880.38
2022-12-25T11:46:28.444Z,100881.19
2022-12-25T11:49:04.236Z,100880.47
2022-12-25T11:51:40.045Z,100875.16
2022-12-25T11:54:37.832Z,100882.22
2022-12-25T11:57:06.470Z,100882.28
2022-12-25T11:59:57.062Z,100878.97
2022-12-25T12:03:16.760Z,100870.03
2022-12-25T12:05:55.759Z,100855.34
2022-12-25T12:08:23.051Z,100855.34
2022-12-25T12:11:53.019Z,100845.75
2022-12-25T12:14:50.548Z,100855.41
2022-12-25T12:17:19.768Z,100844.84
2022-12-25T12:19:47.120Z,100857.84
2022-12-25T12:22:27.113Z,100854.34
2022-12-25T12:25:07.707Z,100858.66
2022-12-25T12:27:39.178Z,100858.59
2022-12-25T12:30:25.881Z,100856.75
2022-12-25T12:33:01.903Z,100854.22
2022-12-25T12:35:40.531Z,100857.56
2022-12-25T12:38:23.473Z,100853.19
2022-12-25T12:41:02.293Z,100843.44
2022-12-25T12:43:38.887Z,100823.41
2022-12-25T12:46:16.047Z,100825.97
2022-12-25T12:48:49.677Z,100824.97
2022-12-25T12:51:33.409Z,100819.75
2022-12-25T12:54:25.778Z,100821.31
2022-12-25T12:57:29.827Z,100816.91
2022-12-25T13:00:02.050Z,100814.31
2022-12-25T13:03:24.889Z,100800.47
2022-12-25T13:06:14.499Z,100800.47
2022-12-25T13:09:19.548Z,100794.44
2022-12-25T13:11:47.872Z,100796.97
2022-12-25T13:14:25.198Z,100804.72
2022-12-25T13:16:54.745Z,100800.31
2022-12-25T13:19:27.506Z,100789.06
2022-12-25T13:22:03.919Z,100781.97
2022-12-25T13:24:37.453Z,100787.94
2022-12-25T13:27:29.007Z,100777.56
2022-12-25T13:29:56.771Z,100782.88
2022-12-25T13:32:33.643Z,100775.03
2022-12-25T13:35:01.198Z,100771.59
2022-12-25T13:37:31.577Z,100768.00
2022-12-25T13:40:05.158Z,100771.38
2022-12-25T13:42:39.980Z,100766.91
2022-12-25T13:45:25.894Z,100759.00
2022-12-25T13:47:55.846Z,100752.94
2022-12-25T13:50:33.918Z,100747.66
2022-12-25T13:53:16.651Z,100752.81
2022-12-25T13:55:54.724Z,100758.03
2022-12-25T13:58:36.876Z,100760.63
2022-12-25T14:01:04.442Z,100761.41
2022-12-25T14:03:39.463Z,100755.34
2022-12-25T14:06:31.225Z,100732.59
2022-12-25T14:08:59.975Z,100726.53
2022-12-25T14:11:31.214Z,100730.88
2022-12-25T14:14:25.216Z,100721.41
2022-12-25T14:16:59.348Z,100737.97
2022-12-25T14:19:34.451Z,100748.34
2022-12-25T14:22:21.821Z,100750.06
2022-12-25T14:24:49.709Z,100746.53
2022-12-25T14:27:32.667Z,100739.59
2022-12-25T14:30:00.869Z,100727.38
2022-12-25T14:32:37.849Z,100723.88
2022-12-25T14:35:06.086Z,100721.25
2022-12-25T14:37:34.291Z,100722.22
2022-12-25T14:40:19.144Z,100715.25
2022-12-25T14:43:05.478Z,100715.34
2022-12-25T14:45:40.398Z,100711.78
2022-12-25T14:48:30.023Z,100700.50
2022-12-25T14:51:18.123Z,100726.53
2022-12-25T14:54:00.153Z,100722.22
2022-12-25T14:56:33.105Z,100730.00
2022-12-25T14:59:00.707Z,100740.44
2022-12-25T15:01:41.349Z,100737.75
2022-12-25T15:04:11.950Z,100731.56
2022-12-25T15:07:01.225Z,100741.03
2022-12-25T15:09:30.058Z,100742.75
2022-12-25T15:11:57.604Z,100739.16
2022-12-25T15:14:26.417Z,100735.66
2022-12-25T15:16:59.477Z,100729.50
2022-12-25T15:19:37.749Z,100732.16
2022-12-25T15:22:06.856Z,100721.72
2022-12-25T15:24:34.152Z,100734.72
2022-12-25T15:27:01.640Z,100739.03
2022-12-25T15:30:07.821Z,100722.44
2022-12-25T15:32:24.150Z,100716.56
2022-12-25T15:34:52.904Z,100719.09
2022-12-25T15:37:20.154Z,100721.72
2022-12-25T15:39:47.585Z,100716.50
2022-12-25T15:42:23.228Z,100713.97
2022-12-25T15:44:51.039Z,100711.28
2022-12-25T15:47:20.271Z,100704.38
2022-12-25T15:49:49.010Z,100713.13
2022-12-25T15:52:18.204Z,100713.13
2022-12-25T15:54:45.743Z,100700.91
2022-12-25T15:57:22.328Z,100699.09
2022-12-25T15:59:49.631Z,100705.13
2022-12-25T16:02:20.987Z,100706.03
2022-12-25T16:04:50.959Z,100713.66
2022-12-25T16:07:23.564Z,100706.78
2022-12-25T16:09:51.776Z,100712.81
2022-12-25T16:12:19.868Z,100709.31
2022-12-25T16:14:47.142Z,100705.91
2022-12-25T16:17:16.072Z,100719.03
2022-12-25T16:19:44.940Z,100719.03
2022-12-25T16:22:25.852Z,100711.19
2022-12-25T16:24:53.851Z,100706.78
2022-12-25T16:27:22.645Z,100705.00
2022-12-25T16:29:49.890Z,100697.09
2022-12-25T16:32:17.113Z,100693.63
2022-12-25T16:34:44.378Z,100696.31
2022-12-25T16:37:11.973Z,100695.44
2022-12-25T16:39:39.229Z,100698.06
2022-12-25T16:42:06.434Z,100699.84
2022-12-25T16:44:37.538Z,100692.06
2022-12-25T16:47:04.834Z,100692.06
2022-12-25T16:49:32.492Z,100706.13
2022-12-25T16:51:59.688Z,100697.44
2022-12-25T16:54:26.993Z,100685.22
2022-12-25T16:56:54.278Z,100689.53
2022-12-25T16:59:21.498Z,100689.53
2022-12-25T17:01:48.851Z,100683.47
2022-12-25T17:04:16.083Z,100666.03
2022-12-25T17:06:43.323Z,100671.41
2022-12-25T17:09:10.681Z,100662.72
2022-12-25T17:11:37.926Z,100666.25
2022-12-25T17:14:06.221Z,100677.63
2022-12-25T17:16:37.551Z,100679.31
2022-12-25T17:19:19.345Z,100688.78
2022-12-25T17:21:47.571Z,100686.25
2022-12-25T17:24:15.625Z,100693.06
2022-12-25T17:26:43.986Z,100688.63
2022-12-25T17:29:15.970Z,100681.56
2022-12-25T17:31:47.888Z,100685.94
2022-12-25T17:34:15.244Z,100685.94
2022-12-25T17:36:42.434Z,100676.41
2022-12-25T17:39:10.708Z,100670.34
2022-12-25T17:41:38.136Z,100682.47
2022-12-25T17:44:05.680Z,100675.56
2022-12-25T17:46:33.407Z,100681.69
2022-12-25T17:49:01.894Z,100689.53
2022-12-25T17:51:31.778Z,100694.75
2022-12-25T17:54:05.053Z,100693.06
2022-12-25T17:56:33.160Z,100694.91
2022-12-25T17:59:12.110Z,100685.31
2022-12-25T18:01:40.027Z,100686.25
2022-12-25T18:04:07.790Z,100681.00
2022-12-25T18:06:36.652Z,100681.00
2022-12-25T18:09:06.260Z,100673.19
2022-12-25T18:11:36.801Z,100665.34
2022-12-25T18:14:07.397Z,100661.03
2022-12-25T18:16:40.121Z,100657.50
2022-12-25T18:19:07.542Z,100649.59
2022-12-25T18:21:35.377Z,100647.91
2022-12-25T18:24:05.870Z,100655.97
2022-12-25T18:26:34.596Z,100653.41
2022-12-25T18:29:02.282Z,100665.56
2022-12-25T18:31:32.525Z,100673.41
2022-12-25T18:34:00.290Z,100678.63
2022-12-25T18:36:29.762Z,100676.00
2022-12-25T18:38:58.238Z,100674.31
2022-12-25T18:41:28.719Z,100682.22
2022-12-25T18:43:56.748Z,100691.75
2022-12-25T18:46:26.039Z,100693.56
2022-12-25T18:48:57.678Z,100694.44
2022-12-25T18:51:27.687Z,100697.06
2022-12-25T18:53:58.613Z,100704.81
2022-12-25T18:56:25.849Z,100698.66
2022-12-25T18:58:53.087Z,100689.91
2022-12-25T19:01:24.395Z,100697.75
2022-12-25T19:03:58.642Z,100689.97
2022-12-25T19:06:33.260Z,100697.81
2022-12-25T19:09:08.690Z,100690.91
2022-12-25T19:11:46.607Z,100691.75
2022-12-25T19:14:15.520Z,100688.28
2022-12-25T19:16:43.147Z,100683.91
2022-12-25T19:19:10.476Z,100686.47
2022-12-25T19:21:37.906Z,100685.53
2022-12-25T19:24:05.673Z,100684.63
2022-12-25T19:26:33.968Z,100681.09
2022-12-25T19:29:01.307Z,100674.94
2022-12-25T19:31:28.665Z,100678.41
2022-12-25T19:33:55.936Z,100672.31
2022-12-25T19:36:23.143Z,100682.75
2022-12-25T19:38:50.400Z,100686.25
2022-12-25T19:41:19.641Z,100685.38
2022-12-25T19:43:49.625Z,100686.25
2022-12-25T19:46:33.805Z,100679.25
2022-12-25T19:49:04.303Z,100690.59
2022-12-25T19:51:38.238Z,100678.41
2022-12-25T19:54:07.145Z,100690.66
2022-12-25T19:56:35.177Z,100684.63
2022-12-25T19:59:02.631Z,100687.97
2022-12-25T20:01:30.905Z,100692.38
2022-12-25T20:03:58.363Z,100697.59
2022-12-25T20:06:33.094Z,100700.22
2022-12-25T20:09:11.034Z,100698.59
2022-12-25T20:11:39.785Z,100707.34
2022-12-25T20:14:08.842Z,100696.91
2022-12-25T20:16:40.584Z,100695.13
2022-12-25T20:19:09.700Z,100689.91
2022-12-25T20:21:36.970Z,100688.13
2022-12-25T20:24:06.332Z,100696.84
2022-12-25T20:26:33.811Z,100686.47
2022-12-25T20:29:01.059Z,100696.03
2022-12-25T20:31:33.286Z,100692.59
2022-12-25T20:34:10.751Z,100695.06
2022-12-25T20:36:38.778Z,100701.03
2022-12-25T20:39:09.583Z,100710.59
2022-12-25T20:41:38.957Z,100695.75
2022-12-25T20:44:09.948Z,100700.91
2022-12-25T20:46:37.865Z,100707.81
2022-12-25T20:49:05.750Z,100710.38
2022-12-25T20:51:33.041Z,100705.06
2022-12-25T20:54:00.979Z,100708.50
2022-12-25T20:56:30.040Z,100717.22
2022-12-25T20:59:00.539Z,100720.66
2022-12-25T21:01:31.139Z,100716.28
2022-12-25T21:03:59.446Z,100724.13
2022-12-25T21:06:26.829Z,100734.50
2022-12-25T21:08:54.311Z,100717.97
2022-12-25T21:11:23.139Z,100724.97
2022-12-25T21:13:50.633Z,100727.59
2022-12-25T21:16:22.855Z,100731.03
2022-12-25T21:18:53.963Z,100733.72
2022-12-25T21:21:22.655Z,100739.78
2022-12-25T21:23:50.458Z,100743.28
2022-12-25T21:26:26.103Z,100739.78
2022-12-25T21:29:00.192Z,100737.19
2022-12-25T21:31:28.079Z,100745.88
2022-12-25T21:33:57.626Z,100749.31
2022-12-25T21:36:34.686Z,100750.16
2022-12-25T21:39:07.452Z,100752.09
2022-12-25T21:41:38.653Z,100764.25
2022-12-25T21:44:07.648Z,100756.34
2022-12-25T21:46:35.336Z,100765.00
2022-12-25T21:49:03.177Z,100771.94
2022-12-25T21:51:52.948Z,100766.72
2022-12-25T21:54:23.222Z,100760.63
2022-12-25T21:56:50.954Z,100764.09
2022-12-25T21:59:22.784Z,100771.94
2022-12-25T22:01:52.779Z,100764.94
2022-12-25T22:04:23.262Z,100764.09
2022-12-25T22:07:09.895Z,100777.16
2022-12-25T22:09:37.894Z,100784.06
2022-12-25T22:12:28.557Z,100784.94
2022-12-25T22:15:06.147Z,100798.00
2022-12-25T22:17:59.742Z,100791.06
2022-12-25T22:20:37.514Z,100796.22
2022-12-25T22:23:05.312Z,100783.16
2022-12-25T22:25:32.757Z,100793.59
2022-12-25T22:28:00.272Z,100778.75
2022-12-25T22:30:29.498Z,100790.97
2022-12-25T22:32:57.590Z,100793.59
2022-12-25T22:35:25.166Z,100789.22
2022-12-25T22:37:53.965Z,100798.75
2022-12-25T22:40:21.962Z,100790.00
2022-12-25T22:42:49.376Z,100782.09
2022-12-25T22:45:16.976Z,100781.16
2022-12-25T22:47:44.211Z,100770.69
2022-12-25T22:50:17.070Z,100772.41
2022-12-25T22:52:45.763Z,100769.03
2022-12-25T22:55:18.782Z,100786.38
2022-12-25T22:57:46.141Z,100781.22
2022-12-25T23:00:14.340Z,100778.63
2022-12-25T23:02:41.708Z,100790.00
2022-12-25T23:05:09.453Z,100777.78
2022-12-25T23:07:36.803Z,100788.38
2022-12-25T23:10:06.858Z,100783.22
2022-12-25T23:12:52.827Z,100778.06
2022-12-25T23:15:20.042Z,100790.22
2022-12-25T23:18:06.413Z,100778.91
2022-12-25T23:20:52.280Z,100765.84
2022-12-25T23:23:38.168Z,100766.78
2022-12-25T23:26:08.930Z,100765.06
2022-12-25T23:28:57.969Z,100757.25
2022-12-25T23:31:36.568Z,100763.31
2022-12-25T23:34:06.373Z,100750.31
2022-12-25T23:36:34.764Z,100762.53
2022-12-25T23:39:09.120Z,100770.44
2022-12-25T23:41:39.290Z,100775.81
2022-12-25T23:44:08.272Z,100780.13
2022-12-25T23:46:35.904Z,100795.81
2022-12-25T23:49:03.859Z,100784.50
2022-12-25T23:51:31.238Z,100791.34
2022-12-25T23:53:58.501Z,100797.47
2022-12-25T23:56:25.716Z,100794.88
2022-12-25T23:58:53.055Z,100794.94
